createdAt,value
2023-01-29T00:00:28.489Z,2.37
2023-01-29T00:02:58.495Z,2.33
2023-01-29T00:05:28.843Z,2.41
2023-01-29T00:07:59.541Z,2.43
2023-01-29T00:10:29.796Z,2.46
2023-01-29T00:12:59.788Z,2.48
2023-01-29T00:16:00.157Z,2.44
2023-01-29T00:18:31.379Z,2.45
2023-01-29T00:21:04.429Z,2.48
2023-01-29T00:23:34.488Z,2.47
2023-01-29T00:26:19.362Z,2.41
2023-01-29T00:28:51.595Z,2.32
2023-01-29T00:31:27.022Z,2.28
2023-01-29T00:33:57.357Z,2.24
2023-01-29T00:36:28.927Z,2.14
2023-01-29T00:39:03.576Z,2.19
2023-01-29T00:41:47.796Z,2.30
2023-01-29T00:44:31.334Z,2.35
2023-01-29T00:47:04.132Z,2.40
2023-01-29T00:49:34.253Z,2.39
2023-01-29T00:52:16.618Z,2.37
2023-01-29T00:54:46.629Z,2.43
2023-01-29T00:57:16.613Z,2.40
2023-01-29T00:59:46.630Z,2.37
2023-01-29T01:02:31.934Z,2.39
2023-01-29T01:05:02.473Z,2.42
2023-01-29T01:07:33.699Z,2.43
2023-01-29T01:10:16.266Z,2.50
2023-01-29T01:12:46.765Z,2.58
2023-01-29T01:15:16.933Z,2.62
2023-01-29T01:17:49.743Z,2.72
2023-01-29T01:20:20.134Z,2.74
2023-01-29T01:22:50.302Z,2.80
2023-01-29T01:25:20.444Z,2.76
2023-01-29T01:27:50.595Z,2.75
2023-01-29T01:30:20.819Z,2.73
2023-01-29T01:32:53.909Z,2.73
2023-01-29T01:35:24.041Z,2.78
2023-01-29T01:37:54.158Z,2.76
2023-01-29T01:40:25.625Z,2.81
2023-01-29T01:42:57.751Z,2.86
2023-01-29T01:45:30.492Z,2.97
2023-01-29T01:48:08.850Z,2.95
2023-01-29T01:50:42.921Z,2.90
2023-01-29T01:53:17.413Z,2.90
2023-01-29T01:55:53.479Z,2.92
2023-01-29T01:58:28.891Z,2.83
2023-01-29T02:00:59.626Z,2.81
2023-01-29T02:03:48.722Z,2.90
2023-01-29T02:06:31.151Z,2.86
2023-01-29T02:09:18.352Z,2.90
2023-01-29T02:11:48.472Z,2.89
2023-01-29T02:14:19.074Z,2.89
2023-01-29T02:16:49.244Z,2.89
2023-01-29T02:19:31.617Z,2.83
2023-01-29T02:22:28.323Z,2.80
2023-01-29T02:25:09.893Z,2.82
2023-01-29T02:28:15.746Z,2.81
2023-01-29T02:30:52.903Z,2.76
2023-01-29T02:33:32.483Z,2.86
2023-01-29T02:36:09.993Z,2.88
2023-01-29T02:38:48.322Z,2.91
2023-01-29T02:41:23.539Z,2.85
2023-01-29T02:44:01.888Z,2.81
2023-01-29T02:46:35.877Z,2.78
2023-01-29T02:49:16.046Z,2.77
2023-01-29T02:52:01.721Z,2.71
2023-01-29T02:54:37.731Z,2.71
2023-01-29T02:57:17.259Z,2.76
2023-01-29T02:59:57.016Z,2.78
2023-01-29T03:02:35.552Z,2.86
2023-01-29T03:05:12.838Z,2.87
2023-01-29T03:07:49.319Z,2.86
2023-01-29T03:10:34.339Z,2.83
2023-01-29T03:13:11.054Z,2.69
2023-01-29T03:15:51.274Z,2.69
2023-01-29T03:18:48.777Z,2.77
2023-01-29T03:21:36.181Z,2.83
2023-01-29T03:24:21.432Z,2.84
2023-01-29T03:27:03.990Z,2.80
2023-01-29T03:29:53.826Z,2.80
2023-01-29T03:32:33.083Z,2.77
2023-01-29T03:35:07.949Z,2.79
2023-01-29T03:37:44.512Z,2.76
2023-01-29T03:40:16.424Z,2.77
2023-01-29T03:43:02.857Z,2.73
2023-01-29T03:45:43.190Z,2.75
2023-01-29T03:48:25.440Z,2.74
2023-01-29T03:51:04.634Z,2.72
2023-01-29T03:53:44.374Z,2.82
2023-01-29T03:56:36.620Z,2.84
2023-01-29T03:59:18.052Z,2.82
2023-01-29T04:02:32.408Z,2.72
2023-01-29T04:05:16.833Z,2.82
2023-01-29T04:08:07.957Z,2.99
2023-01-29T04:10:42.221Z,2.89
2023-01-29T04:13:15.173Z,2.83
2023-01-29T04:15:52.156Z,2.83
2023-01-29T04:18:28.391Z,2.67
2023-01-29T04:21:13.409Z,2.67
2023-01-29T04:23:43.647Z,2.64
2023-01-29T04:26:51.912Z,2.58
2023-01-29T04:29:47.770Z,2.61
2023-01-29T04:32:24.049Z,2.57
2023-01-29T04:35:04.079Z,2.60
2023-01-29T04:37:48.508Z,2.60
2023-01-29T04:40:24.148Z,2.56
2023-01-29T04:43:05.367Z,2.60
2023-01-29T04:45:47.907Z,2.68
2023-01-29T04:48:25.797Z,2.64
2023-01-29T04:51:01.605Z,2.60
2023-01-29T04:53:46.048Z,2.63
2023-01-29T04:56:23.847Z,2.70
2023-01-29T04:58:58.547Z,2.71
2023-01-29T05:01:33.205Z,2.66
2023-01-29T05:04:07.507Z,2.72
2023-01-29T05:06:40.279Z,2.76
2023-01-29T05:09:15.422Z,2.76
2023-01-29T05:11:48.383Z,2.83
2023-01-29T05:14:22.334Z,2.85
2023-01-29T05:16:55.148Z,2.91
2023-01-29T05:19:25.246Z,2.89
2023-01-29T05:21:55.583Z,2.81
2023-01-29T05:24:29.908Z,2.72
2023-01-29T05:27:12.293Z,2.70
2023-01-29T05:29:44.500Z,2.68
2023-01-29T05:32:14.477Z,2.71
2023-01-29T05:34:44.541Z,2.66
2023-01-29T05:37:14.579Z,2.64
2023-01-29T05:39:47.079Z,2.67
2023-01-29T05:42:17.353Z,2.64
2023-01-29T05:44:47.313Z,2.65
2023-01-29T05:47:17.377Z,2.66
2023-01-29T05:49:47.391Z,2.70
2023-01-29T05:52:17.369Z,2.60
2023-01-29T05:54:49.951Z,2.56
2023-01-29T05:57:19.873Z,2.62
2023-01-29T05:59:49.811Z,2.63
2023-01-29T06:02:19.765Z,2.67
2023-01-29T06:04:49.761Z,2.71
2023-01-29T06:07:19.914Z,2.70
2023-01-29T06:09:52.432Z,2.82
2023-01-29T06:12:22.404Z,2.94
2023-01-29T06:14:52.321Z,2.94
2023-01-29T06:17:22.218Z,2.93
2023-01-29T06:19:52.142Z,2.96
2023-01-29T06:22:22.076Z,2.93
2023-01-29T06:24:54.650Z,2.91
2023-01-29T06:27:24.679Z,2.89
2023-01-29T06:29:54.662Z,2.87
2023-01-29T06:32:36.132Z,2.76
2023-01-29T06:35:06.713Z,2.75
2023-01-29T06:37:36.674Z,2.70
2023-01-29T06:40:11.713Z,2.69
2023-01-29T06:42:41.650Z,2.72
2023-01-29T06:45:14.775Z,2.77
2023-01-29T06:47:44.801Z,2.72
2023-01-29T06:50:15.779Z,2.82
2023-01-29T06:52:45.890Z,2.80
2023-01-29T06:55:18.577Z,2.64
2023-01-29T06:57:48.527Z,2.63
2023-01-29T07:00:19.397Z,2.64
2023-01-29T07:02:52.066Z,2.71
2023-01-29T07:05:42.761Z,2.75
2023-01-29T07:08:12.685Z,2.82
2023-01-29T07:11:11.715Z,2.83
2023-01-29T07:13:41.720Z,2.80
2023-01-29T07:16:14.408Z,2.82
2023-01-29T07:18:44.418Z,2.86
2023-01-29T07:21:14.432Z,2.72
2023-01-29T07:23:44.419Z,2.66
2023-01-29T07:26:17.038Z,2.62
2023-01-29T07:28:47.017Z,2.65
2023-01-29T07:31:17.972Z,2.67
2023-01-29T07:33:48.217Z,2.74
2023-01-29T07:36:18.420Z,2.74
2023-01-29T07:38:52.335Z,2.76
2023-01-29T07:41:25.154Z,2.71
2023-01-29T07:43:55.233Z,2.77
2023-01-29T07:46:25.216Z,2.81
2023-01-29T07:48:55.299Z,2.89
2023-01-29T07:51:25.259Z,3.05
2023-01-29T07:53:55.289Z,3.12
2023-01-29T07:56:28.108Z,3.12
2023-01-29T07:58:58.829Z,3.15
2023-01-29T08:01:28.884Z,3.07
2023-01-29T08:03:58.895Z,3.04
2023-01-29T08:06:28.807Z,3.04
2023-01-29T08:08:59.811Z,3.06
2023-01-29T08:11:39.058Z,3.13
2023-01-29T08:14:11.718Z,3.11
2023-01-29T08:16:41.722Z,3.15
2023-01-29T08:19:11.744Z,3.18
2023-01-29T08:21:41.791Z,3.18
2023-01-29T08:24:11.772Z,3.27
2023-01-29T08:27:04.584Z,3.31
2023-01-29T08:29:34.585Z,3.27
2023-01-29T08:32:04.764Z,3.36
2023-01-29T08:34:34.959Z,3.34
2023-01-29T08:37:05.076Z,3.42
2023-01-29T08:39:35.175Z,3.45
2023-01-29T08:42:07.825Z,3.43
2023-01-29T08:44:37.881Z,3.49
2023-01-29T08:47:07.994Z,3.55
2023-01-29T08:49:37.937Z,3.60
2023-01-29T08:52:08.232Z,3.62
2023-01-29T08:54:38.249Z,3.59
2023-01-29T08:57:10.923Z,3.61
2023-01-29T08:59:41.186Z,3.64
2023-01-29T09:02:13.866Z,3.67
2023-01-29T09:04:43.824Z,3.67
2023-01-29T09:07:13.808Z,3.65
2023-01-29T09:09:43.824Z,3.67
2023-01-29T09:12:16.473Z,3.68
2023-01-29T09:14:46.599Z,3.70
2023-01-29T09:17:16.664Z,3.71
2023-01-29T09:19:46.657Z,3.72
2023-01-29T09:22:16.640Z,3.75
2023-01-29T09:24:53.924Z,3.74
2023-01-29T09:27:26.700Z,3.77
2023-01-29T09:29:56.701Z,3.82
2023-01-29T09:32:50.079Z,3.81
2023-01-29T09:35:16.880Z,3.85
2023-01-29T09:37:50.465Z,3.92
2023-01-29T09:40:26.547Z,3.91
2023-01-29T09:43:04.705Z,3.97
2023-01-29T09:45:35.448Z,4.01
2023-01-29T09:48:06.776Z,3.99
2023-01-29T09:50:42.567Z,4.07
2023-01-29T09:53:20.782Z,4.14
2023-01-29T09:55:54.256Z,4.20
2023-01-29T09:58:31.883Z,4.07
2023-01-29T10:01:13.897Z,4.07
2023-01-29T10:04:15.332Z,4.13
2023-01-29T10:07:01.496Z,4.20
2023-01-29T10:10:00.091Z,4.10
2023-01-29T10:12:45.796Z,4.14
2023-01-29T10:15:38.152Z,4.33
2023-01-29T10:18:40.902Z,4.51
2023-01-29T10:21:26.815Z,4.59
2023-01-29T10:24:03.766Z,4.62
2023-01-29T10:26:48.791Z,4.76
2023-01-29T10:29:38.926Z,4.88
2023-01-29T10:32:19.496Z,4.97
2023-01-29T10:34:55.397Z,5.11
2023-01-29T10:37:29.430Z,5.22
2023-01-29T10:40:03.475Z,5.30
2023-01-29T10:42:49.833Z,5.28
2023-01-29T10:45:31.702Z,5.36
2023-01-29T10:48:36.438Z,5.43
2023-01-29T10:51:19.205Z,5.58
2023-01-29T10:54:00.580Z,5.75
2023-01-29T10:56:47.762Z,5.83
2023-01-29T10:59:39.612Z,5.98
2023-01-29T11:02:19.709Z,6.14
2023-01-29T11:04:53.634Z,6.30
2023-01-29T11:07:28.403Z,6.13
2023-01-29T11:10:05.473Z,6.03
2023-01-29T11:12:38.320Z,6.04
2023-01-29T11:15:17.462Z,6.08
2023-01-29T11:18:06.284Z,6.20
2023-01-29T11:20:39.158Z,6.24
2023-01-29T11:23:09.225Z,6.28
2023-01-29T11:25:56.018Z,6.53
2023-01-29T11:28:42.193Z,6.94
2023-01-29T11:31:26.142Z,7.24
2023-01-29T11:34:04.355Z,7.43
2023-01-29T11:36:39.746Z,7.55
2023-01-29T11:39:19.275Z,7.61
2023-01-29T11:41:56.429Z,7.71
2023-01-29T11:44:37.411Z,7.66
2023-01-29T11:47:15.538Z,7.34
2023-01-29T11:50:05.463Z,7.15
2023-01-29T11:52:42.216Z,7.06
2023-01-29T11:55:20.707Z,7.09
2023-01-29T11:57:54.371Z,6.99
2023-01-29T12:00:29.864Z,6.90
2023-01-29T12:03:04.850Z,6.91
2023-01-29T12:05:58.170Z,7.08
2023-01-29T12:08:38.135Z,7.09
2023-01-29T12:11:14.507Z,7.04
2023-01-29T12:14:03.137Z,6.92
2023-01-29T12:16:49.701Z,7.04
2023-01-29T12:19:28.374Z,7.10
2023-01-29T12:22:04.472Z,6.98
2023-01-29T12:24:43.764Z,6.91
2023-01-29T12:27:20.143Z,6.93
2023-01-29T12:29:55.383Z,6.88
2023-01-29T12:32:35.893Z,6.95
2023-01-29T12:35:13.377Z,6.93
2023-01-29T12:37:54.796Z,6.92
2023-01-29T12:40:32.532Z,6.82
2023-01-29T12:43:10.124Z,6.74
2023-01-29T12:45:41.869Z,6.74
2023-01-29T12:48:16.862Z,6.65
2023-01-29T12:50:47.827Z,6.61
2023-01-29T12:53:28.415Z,6.44
2023-01-29T12:56:05.373Z,6.44
2023-01-29T12:58:41.209Z,6.54
2023-01-29T13:01:19.164Z,6.54
2023-01-29T13:03:56.127Z,6.47
2023-01-29T13:06:31.596Z,6.32
2023-01-29T13:09:04.561Z,6.31
2023-01-29T13:11:43.937Z,6.34
2023-01-29T13:14:22.384Z,6.40
2023-01-29T13:16:57.380Z,6.40
2023-01-29T13:19:32.463Z,6.46
2023-01-29T13:22:05.608Z,6.42
2023-01-29T13:24:44.354Z,6.42
2023-01-29T13:27:26.670Z,6.34
2023-01-29T13:29:57.963Z,6.24
2023-01-29T13:32:30.966Z,6.26
2023-01-29T13:35:05.449Z,6.30
2023-01-29T13:37:39.194Z,6.29
2023-01-29T13:40:11.566Z,6.31
2023-01-29T13:42:48.578Z,6.34
2023-01-29T13:45:25.588Z,6.39
2023-01-29T13:48:26.959Z,6.37
2023-01-29T13:51:05.925Z,6.38
2023-01-29T13:53:41.339Z,6.33
2023-01-29T13:56:41.607Z,6.34
2023-01-29T13:59:25.779Z,6.35
2023-01-29T14:02:23.582Z,6.30
2023-01-29T14:04:53.788Z,6.21
2023-01-29T14:07:53.183Z,6.04
2023-01-29T14:10:34.089Z,5.73
2023-01-29T14:13:37.023Z,5.65
2023-01-29T14:16:40.340Z,5.64
2023-01-29T14:19:22.098Z,5.68
2023-01-29T14:21:53.418Z,5.72
2023-01-29T14:24:27.732Z,5.85
2023-01-29T14:26:58.872Z,5.74
2023-01-29T14:29:34.964Z,5.80
2023-01-29T14:32:19.994Z,5.86
2023-01-29T14:34:54.796Z,5.83
2023-01-29T14:37:31.816Z,5.68
2023-01-29T14:40:13.493Z,5.53
2023-01-29T14:42:55.579Z,5.53
2023-01-29T14:45:35.964Z,5.53
2023-01-29T14:48:39.255Z,5.45
2023-01-29T14:51:16.680Z,5.32
2023-01-29T14:54:05.571Z,5.24
2023-01-29T14:56:49.396Z,5.34
2023-01-29T14:59:46.207Z,5.20
2023-01-29T15:02:25.243Z,5.11
2023-01-29T15:05:02.793Z,5.06
2023-01-29T15:07:38.209Z,5.01
2023-01-29T15:10:24.618Z,5.00
2023-01-29T15:13:00.106Z,4.99
2023-01-29T15:15:39.206Z,4.87
2023-01-29T15:18:12.199Z,4.84
2023-01-29T15:20:46.535Z,4.85
2023-01-29T15:23:29.401Z,4.90
2023-01-29T15:26:02.103Z,4.85
2023-01-29T15:28:33.707Z,4.85
2023-01-29T15:31:08.026Z,4.85
2023-01-29T15:33:39.442Z,4.84
2023-01-29T15:36:22.596Z,4.62
2023-01-29T15:39:07.065Z,4.52
2023-01-29T15:41:37.058Z,4.60
2023-01-29T15:44:11.886Z,4.57
2023-01-29T15:46:45.139Z,4.57
2023-01-29T15:49:23.588Z,4.62
2023-01-29T15:51:59.795Z,4.65
2023-01-29T15:54:34.073Z,4.61
2023-01-29T15:57:05.442Z,4.46
2023-01-29T15:59:40.750Z,4.55
2023-01-29T16:02:36.063Z,4.63
2023-01-29T16:05:30.302Z,4.56
2023-01-29T16:08:03.838Z,4.58
2023-01-29T16:10:35.348Z,4.67
2023-01-29T16:13:31.674Z,4.64
2023-01-29T16:16:07.307Z,4.60
2023-01-29T16:18:57.839Z,4.63
2023-01-29T16:21:37.129Z,4.62
2023-01-29T16:24:15.986Z,4.62
2023-01-29T16:26:49.657Z,4.69
2023-01-29T16:29:26.267Z,4.64
2023-01-29T16:32:02.642Z,4.69
2023-01-29T16:34:35.559Z,4.62
2023-01-29T16:37:10.274Z,4.70
2023-01-29T16:39:50.597Z,4.70
2023-01-29T16:42:31.151Z,4.80
2023-01-29T16:45:04.156Z,4.74
2023-01-29T16:47:37.684Z,4.69
2023-01-29T16:50:40.682Z,4.69
2023-01-29T16:53:25.652Z,4.64
2023-01-29T16:56:06.278Z,4.66
2023-01-29T16:58:37.461Z,4.64
2023-01-29T17:01:12.948Z,4.66
2023-01-29T17:03:44.535Z,4.65
2023-01-29T17:06:33.193Z,4.70
2023-01-29T17:09:04.645Z,4.76
2023-01-29T17:11:44.298Z,4.75
2023-01-29T17:14:22.101Z,4.66
2023-01-29T17:16:54.291Z,4.71
2023-01-29T17:19:25.434Z,4.49
2023-01-29T17:21:57.172Z,4.48
2023-01-29T17:24:27.171Z,4.47
2023-01-29T17:26:59.887Z,4.48
2023-01-29T17:29:34.529Z,4.45
2023-01-29T17:32:04.633Z,4.53
2023-01-29T17:34:34.616Z,4.41
2023-01-29T17:37:04.551Z,4.36
2023-01-29T17:39:35.149Z,4.24
2023-01-29T17:42:08.256Z,4.28
2023-01-29T17:44:38.293Z,4.20
2023-01-29T17:47:11.890Z,4.21
2023-01-29T17:49:44.190Z,4.29
2023-01-29T17:52:14.253Z,4.30
2023-01-29T17:54:44.293Z,4.32
2023-01-29T17:57:18.220Z,4.37
2023-01-29T17:59:56.366Z,4.29
2023-01-29T18:02:28.747Z,4.27
2023-01-29T18:04:59.808Z,4.21
2023-01-29T18:07:29.980Z,4.20
2023-01-29T18:10:00.154Z,4.32
2023-01-29T18:12:32.988Z,4.27
2023-01-29T18:15:03.040Z,4.19
2023-01-29T18:17:36.227Z,4.12
2023-01-29T18:20:18.854Z,4.13
2023-01-29T18:22:49.484Z,4.21
2023-01-29T18:25:24.815Z,4.29
2023-01-29T18:28:00.698Z,4.32
2023-01-29T18:30:30.805Z,4.34
2023-01-29T18:33:02.002Z,4.28
2023-01-29T18:35:34.795Z,4.28
2023-01-29T18:38:04.916Z,4.31
2023-01-29T18:40:35.589Z,4.24
2023-01-29T18:43:08.338Z,4.22
2023-01-29T18:45:41.805Z,4.29
2023-01-29T18:48:11.941Z,4.32
2023-01-29T18:50:41.934Z,4.38
2023-01-29T18:53:23.320Z,4.35
2023-01-29T18:56:00.944Z,4.32
2023-01-29T18:58:36.758Z,4.31
2023-01-29T19:01:10.055Z,4.24
2023-01-29T19:03:40.582Z,4.24
2023-01-29T19:06:13.279Z,4.26
2023-01-29T19:08:44.110Z,4.20
2023-01-29T19:11:34.319Z,4.24
2023-01-29T19:14:06.920Z,4.38
2023-01-29T19:16:36.932Z,4.44
2023-01-29T19:19:07.123Z,4.27
2023-01-29T19:21:37.660Z,4.28
2023-01-29T19:24:10.138Z,4.32
2023-01-29T19:26:40.445Z,4.36
2023-01-29T19:29:13.348Z,4.47
2023-01-29T19:31:43.419Z,4.54
2023-01-29T19:34:13.698Z,4.49
2023-01-29T19:36:43.706Z,4.49
2023-01-29T19:39:14.863Z,4.34
2023-01-29T19:41:44.981Z,4.34
2023-01-29T19:44:17.850Z,4.38
2023-01-29T19:46:47.959Z,4.34
2023-01-29T19:49:18.406Z,4.22
2023-01-29T19:51:50.604Z,4.14
2023-01-29T19:54:22.077Z,4.17
2023-01-29T19:56:52.022Z,4.22
2023-01-29T19:59:24.990Z,4.24
2023-01-29T20:01:55.173Z,4.25
2023-01-29T20:04:26.798Z,4.20
2023-01-29T20:06:56.739Z,4.21
2023-01-29T20:09:29.422Z,4.20
2023-01-29T20:11:59.390Z,4.19
2023-01-29T20:14:32.020Z,4.18
2023-01-29T20:17:01.941Z,4.12
2023-01-29T20:19:31.885Z,4.21
2023-01-29T20:22:01.896Z,4.20
2023-01-29T20:24:55.177Z,4.17
2023-01-29T20:27:25.144Z,4.11
2023-01-29T20:29:57.667Z,4.13
2023-01-29T20:32:27.908Z,4.02
2023-01-29T20:34:57.858Z,3.97
2023-01-29T20:37:27.897Z,3.96
2023-01-29T20:39:57.868Z,3.95
2023-01-29T20:42:27.930Z,3.92
2023-01-29T20:45:00.806Z,4.00
2023-01-29T20:47:30.791Z,4.01
2023-01-29T20:50:04.522Z,3.97
2023-01-29T20:52:34.509Z,4.02
2023-01-29T20:55:04.720Z,4.00
2023-01-29T20:57:39.647Z,4.03
2023-01-29T21:00:15.168Z,4.04
2023-01-29T21:02:46.210Z,4.04
2023-01-29T21:05:16.686Z,4.05
2023-01-29T21:07:46.611Z,4.11
2023-01-29T21:10:17.139Z,4.17
2023-01-29T21:13:02.616Z,4.16
2023-01-29T21:15:35.267Z,4.12
2023-01-29T21:18:06.061Z,4.04
2023-01-29T21:20:36.070Z,4.04
2023-01-29T21:23:07.325Z,4.02
2023-01-29T21:25:38.647Z,3.99
2023-01-29T21:28:08.933Z,3.94
2023-01-29T21:30:41.707Z,3.90
2023-01-29T21:33:11.970Z,3.95
2023-01-29T21:35:42.051Z,4.02
2023-01-29T21:38:12.116Z,4.07
2023-01-29T21:40:42.183Z,3.95
2023-01-29T21:43:12.320Z,3.97
2023-01-29T21:45:45.538Z,3.98
2023-01-29T21:48:15.614Z,3.90
2023-01-29T21:50:45.676Z,3.97
2023-01-29T21:53:15.682Z,3.88
2023-01-29T21:55:45.790Z,3.81
2023-01-29T21:58:16.563Z,3.85
2023-01-29T22:00:49.801Z,3.79
2023-01-29T22:03:19.825Z,3.78
2023-01-29T22:05:54.866Z,3.77
2023-01-29T22:08:24.920Z,3.68
2023-01-29T22:10:55.048Z,3.74
2023-01-29T22:13:25.303Z,3.79
2023-01-29T22:16:00.371Z,3.86
2023-01-29T22:18:30.751Z,3.86
2023-01-29T22:21:02.748Z,3.99
2023-01-29T22:23:33.473Z,3.97
2023-01-29T22:26:21.426Z,3.91
2023-01-29T22:28:55.022Z,3.90
2023-01-29T22:31:27.887Z,3.90
2023-01-29T22:33:59.651Z,3.85
2023-01-29T22:36:32.692Z,3.87
2023-01-29T22:39:05.549Z,3.82
2023-01-29T22:41:38.018Z,3.80
2023-01-29T22:44:08.248Z,3.71
2023-01-29T22:46:41.348Z,3.86
2023-01-29T22:49:11.676Z,3.86
2023-01-29T22:51:42.180Z,3.85
2023-01-29T22:54:15.588Z,3.94
2023-01-29T22:56:45.621Z,4.04
2023-01-29T22:59:15.868Z,3.91
2023-01-29T23:01:48.669Z,3.76
2023-01-29T23:04:18.725Z,3.81
2023-01-29T23:06:48.912Z,3.81
2023-01-29T23:09:22.102Z,3.86
2023-01-29T23:11:52.160Z,3.82
2023-01-29T23:14:22.481Z,3.82
2023-01-29T23:16:55.045Z,3.79
2023-01-29T23:19:27.118Z,3.80
2023-01-29T23:21:57.057Z,3.78
2023-01-29T23:24:27.047Z,3.88
2023-01-29T23:27:09.424Z,3.93
2023-01-29T23:29:39.811Z,3.85
2023-01-29T23:32:13.555Z,3.81
2023-01-29T23:34:43.543Z,3.91
2023-01-29T23:37:13.781Z,3.96
2023-01-29T23:39:43.942Z,3.94
2023-01-29T23:42:13.912Z,3.99
2023-01-29T23:44:44.240Z,4.02
2023-01-29T23:47:16.752Z,4.02
2023-01-29T23:49:46.944Z,4.01
2023-01-29T23:52:17.037Z,3.97
2023-01-29T23:54:47.121Z,3.87
2023-01-29T23:57:17.190Z,3.85
2023-01-29T23:59:47.240Z,3.80
